Time,TemperatureF,DewpointF,PressureIn,WindDirection,WindDirectionDegrees,WindSpeedMPH,WindSpeedGustMPH,Humidity,HourlyPrecipIn,Conditions,Clouds,dailyrainin,SoftwareType,DateUTC
2013-04-14 00:13:00,20.2,4.9,30.50,South,189,0.0,0.0,51,0.00,CLR,,0.00,WeatherDisplay:10.37,2013-04-14 08:13:00,
2013-04-14 00:28:00,19.6,4.8,30.50,South,189,0.0,0.0,52,0.00,CLR,,0.00,WeatherDisplay:10.37,2013-04-14 08:28:00,
2013-04-14 00:43:00,19.5,4.7,30.51,South,189,0.0,0.0,52,0.00,CLR,,0.00,WeatherDisplay:10.37,2013-04-14 08:43:00,
2013-04-14 00:58:00,18.8,4.1,30.51,South,189,0.0,0.0,52,0.00,CLR,,0.00,WeatherDisplay:10.37,2013-04-14 08:58:00,
2013-04-14 01:13:00,18.7,4.0,30.51,South,189,0.0,0.0,52,0.00,CLR,,0.00,WeatherDisplay:10.37,2013-04-14 09:13:00,
2013-04-14 01:28:00,16.9,2.7,30.52,ENE,78,3.0,5.0,53,0.00,CLR,,0.00,WeatherDisplay:10.37,2013-04-14 09:28:00,
2013-04-14 01:43:00,15.0,2.1,30.52,ENE,70,5.0,6.0,56,0.00,CLR,,0.00,WeatherDisplay:10.37,2013-04-14 09:43:00,
2013-04-14 01:58:00,14.2,2.1,30.52,ENE,71,5.0,6.0,58,0.00,CLR,,0.00,WeatherDisplay:10.37,2013-04-14 09:58:00,
2013-04-14 02:13:00,13.8,2.4,30.53,ENE,76,5.0,6.0,60,0.00,CLR,,0.00,WeatherDisplay:10.37,2013-04-14 10:13:00,
2013-04-14 02:28:00,13.5,2.5,30.53,East,87,5.0,6.0,61,0.00,CLR,,0.00,WeatherDisplay:10.37,2013-04-14 10:28:00,
2013-04-14 02:43:00,13.3,2.3,30.54,ENE,78,6.0,7.0,61,0.00,CLR,,0.00,WeatherDisplay:10.37,2013-04-14 10:43:00,
2013-04-14 02:58:00,13.3,2.7,30.54,ENE,71,7.0,9.0,62,0.00,CLR,,0.00,WeatherDisplay:10.37,2013-04-14 10:58:00,
2013-04-14 03:13:00,13.1,2.9,30.55,ENE,69,6.0,8.0,63,0.00,CLR,,0.00,WeatherDisplay:10.37,2013-04-14 11:13:00,
2013-04-14 03:28:00,12.7,2.8,30.55,ENE,68,6.0,9.0,64,0.00,CLR,,0.00,WeatherDisplay:10.37,2013-04-14 11:28:00,
2013-04-14 03:43:00,11.8,2.3,30.56,ENE,73,7.0,9.0,65,0.00,CLR,,0.00,WeatherDisplay:10.37,2013-04-14 11:43:00,
2013-04-14 03:58:00,11.2,2.1,30.56,East,81,7.0,8.0,66,0.00,CLR,,0.00,WeatherDisplay:10.37,2013-04-14 11:58:00,
2013-04-14 04:13:00,10.9,2.1,30.56,East,79,7.0,10.0,67,0.00,CLR,,0.00,WeatherDisplay:10.37,2013-04-14 12:13:00,
2013-04-14 04:28:00,11.2,2.4,30.57,East,92,5.0,8.0,67,0.00,CLR,,0.00,WeatherDisplay:10.37,2013-04-14 12:28:00,
2013-04-14 04:43:00,11.8,2.9,30.57,East,92,6.0,8.0,67,0.00,CLR,,0.00,WeatherDisplay:10.37,2013-04-14 12:43:00,
2013-04-14 04:58:00,11.9,2.7,30.57,East,86,5.0,8.0,66,0.00,CLR,,0.00,WeatherDisplay:10.37,2013-04-14 12:58:00,
2013-04-14 05:13:00,11.5,2.3,30.58,East,89,6.0,8.0,66,0.00,CLR,,0.00,WeatherDisplay:10.37,2013-04-14 13:13:00,
2013-04-14 05:28:00,11.2,2.1,30.57,East,82,8.0,10.0,66,0.00,CLR,,0.00,WeatherDisplay:10.37,2013-04-14 13:28:00,
2013-04-14 05:43:00,11.2,2.4,30.58,East,80,7.0,10.0,67,0.00,CLR,,0.00,WeatherDisplay:10.37,2013-04-14 13:43:00,
2013-04-14 05:58:00,11.3,2.4,30.58,East,82,5.0,8.0,67,0.00,CLR,,0.00,WeatherDisplay:10.37,2013-04-14 13:58:00,
2013-04-14 06:13:00,11.0,2.2,30.59,East,85,5.0,7.0,67,0.00,CLR,,0.00,WeatherDisplay:10.37,2013-04-14 14:13:00,
2013-04-14 06:28:00,10.9,2.1,30.59,East,82,5.0,8.0,67,0.00,CLR,,0.00,WeatherDisplay:10.37,2013-04-14 14:28:00,
2013-04-14 06:43:00,11.1,2.6,30.59,East,89,5.0,9.0,68,0.00,CLR,,0.00,WeatherDisplay:10.37,2013-04-14 14:43:00,
2013-04-14 06:58:00,11.4,2.9,30.59,SSE,147,0.0,8.0,68,0.00,CLR,,0.00,WeatherDisplay:10.37,2013-04-14 14:58:00,
2013-04-14 07:13:00,12.1,3.6,30.60,ESE,118,6.0,9.0,68,0.00,CLR,,0.00,WeatherDisplay:10.37,2013-04-14 15:13:00,
2013-04-14 07:28:00,12.3,3.8,30.60,East,88,5.0,9.0,68,0.00,CLR,,0.00,WeatherDisplay:10.37,2013-04-14 15:28:00,
2013-04-14 07:43:00,12.4,3.8,30.60,East,80,5.0,8.0,68,0.00,CLR,,0.00,WeatherDisplay:10.37,2013-04-14 15:43:00,
2013-04-14 07:58:00,12.6,3.7,30.60,East,98,6.0,8.0,67,0.00,CLR,,0.00,WeatherDisplay:10.37,2013-04-14 15:58:00,
2013-04-14 08:13:00,13.3,4.4,30.60,East,83,8.0,10.0,67,0.00,CLR,,0.00,WeatherDisplay:10.37,2013-04-14 16:13:00,
2013-04-14 08:28:00,14.2,5.2,30.60,East,84,3.0,9.0,67,0.00,CLR,,0.00,WeatherDisplay:10.37,2013-04-14 16:28:00,
2013-04-14 08:43:00,14.4,5.1,30.61,ENE,78,6.0,8.0,66,0.00,CLR,,0.00,WeatherDisplay:10.37,2013-04-14 16:43:00,
2013-04-14 08:58:00,15.1,5.8,30.61,East,92,2.0,12.0,66,0.00,CLR,,0.00,WeatherDisplay:10.37,2013-04-14 16:58:00,
2013-04-14 09:13:00,15.9,6.2,30.61,East,97,5.0,10.0,65,0.00,CLR,,0.00,WeatherDisplay:10.37,2013-04-14 17:13:00,
2013-04-14 09:28:00,16.5,6.4,30.61,East,96,3.0,10.0,64,0.00,CLR,,0.00,WeatherDisplay:10.37,2013-04-14 17:28:00,
2013-04-14 09:43:00,17.0,6.6,30.61,ESE,103,6.0,10.0,63,0.00,CLR,,0.00,WeatherDisplay:10.37,2013-04-14 17:43:00,
2013-04-14 09:58:00,16.8,6.1,30.61,East,94,3.0,10.0,62,0.00,CLR,,0.00,WeatherDisplay:10.37,2013-04-14 17:58:00,
2013-04-14 10:13:00,17.1,6.3,30.61,East,86,5.0,8.0,62,0.00,CLR,,0.00,WeatherDisplay:10.37,2013-04-14 18:13:00,
2013-04-14 10:28:00,17.9,6.7,30.60,East,87,6.0,8.0,61,0.00,CLR,,0.00,WeatherDisplay:10.37,2013-04-14 18:28:00,
2013-04-14 10:43:00,18.7,7.4,30.60,East,88,5.0,8.0,61,0.00,CLR,,0.00,WeatherDisplay:10.37,2013-04-14 18:43:00,
2013-04-14 10:58:00,19.3,8.1,30.60,East,88,2.0,8.0,61,0.00,CLR,,0.00,WeatherDisplay:10.37,2013-04-14 18:58:00,
2013-04-14 11:13:00,19.9,8.6,30.60,East,81,5.0,8.0,61,0.00,CLR,,0.00,WeatherDisplay:10.37,2013-04-14 19:13:00,
2013-04-14 11:28:00,20.4,9.1,30.60,East,88,5.0,8.0,61,0.00,CLR,,0.00,WeatherDisplay:10.37,2013-04-14 19:28:00,
2013-04-14 11:43:00,20.8,10.6,30.60,East,90,3.0,9.0,64,0.00,CLR,,0.00,WeatherDisplay:10.37,2013-04-14 19:43:00,
2013-04-14 11:58:00,21.8,12.1,30.60,East,92,5.0,8.0,66,0.00,CLR,,0.00,WeatherDisplay:10.37,2013-04-14 19:58:00,
2013-04-14 12:13:00,22.5,13.2,30.59,East,84,5.0,7.0,67,0.00,CLR,,0.00,WeatherDisplay:10.37,2013-04-14 20:13:00,
2013-04-14 12:28:00,23.6,14.6,30.59,ENE,70,5.0,9.0,68,0.00,CLR,,0.00,WeatherDisplay:10.37,2013-04-14 20:28:00,
2013-04-14 12:43:00,24.3,15.6,30.59,SSE,152,5.0,9.0,69,0.00,CLR,,0.00,WeatherDisplay:10.37,2013-04-14 20:43:00,
2013-04-14 12:58:00,24.4,15.7,30.59,SE,143,2.0,10.0,69,0.00,CLR,,0.00,WeatherDisplay:10.37,2013-04-14 20:58:00,
2013-04-14 13:13:00,25.0,16.6,30.59,ESE,110,5.0,9.0,70,0.00,CLR,,0.00,WeatherDisplay:10.37,2013-04-14 21:13:00,
2013-04-14 13:28:00,25.2,16.8,30.58,SE,135,0.0,8.0,70,0.00,CLR,,0.00,WeatherDisplay:10.37,2013-04-14 21:28:00,
2013-04-14 13:43:00,25.7,17.6,30.58,ESE,105,2.0,9.0,71,0.00,CLR,,0.00,WeatherDisplay:10.37,2013-04-14 21:43:00,
2013-04-14 13:58:00,26.3,18.1,30.58,ESE,106,3.0,10.0,71,0.00,CLR,,0.00,WeatherDisplay:10.37,2013-04-14 21:58:00,
2013-04-14 14:13:00,26.5,18.4,30.58,East,93,3.0,6.0,71,0.00,CLR,,0.00,WeatherDisplay:10.37,2013-04-14 22:13:00,
2013-04-14 14:28:00,26.4,18.6,30.58,ENE,73,0.0,6.0,72,0.00,CLR,,0.00,WeatherDisplay:10.37,2013-04-14 22:28:00,
2013-04-14 14:43:00,26.2,18.1,30.57,NNE,19,2.0,5.0,71,0.00,CLR,,0.00,WeatherDisplay:10.37,2013-04-14 22:43:00,
2013-04-14 14:58:00,25.7,18.2,30.57,NW,313,0.0,5.0,73,0.00,CLR,,0.00,WeatherDisplay:10.37,2013-04-14 22:58:00,
2013-04-14 15:13:00,26.9,19.1,30.57,SSE,162,5.0,7.0,72,0.00,CLR,,0.00,WeatherDisplay:10.37,2013-04-14 23:13:00,
2013-04-14 15:28:00,27.8,20.0,30.57,SE,142,2.0,8.0,72,0.00,CLR,,0.00,WeatherDisplay:10.37,2013-04-14 23:28:00,
2013-04-14 15:43:00,28.3,20.1,30.56,SSE,150,1.0,8.0,71,0.00,CLR,,0.00,WeatherDisplay:10.37,2013-04-14 23:43:00,
2013-04-14 15:58:00,28.5,20.3,30.56,SSE,157,1.0,8.0,71,0.00,CLR,,0.00,WeatherDisplay:10.37,2013-04-14 23:58:00,
2013-04-14 16:13:00,27.1,18.9,30.56,SW,227,2.0,7.0,71,0.00,CLR,,0.00,WeatherDisplay:10.37,2013-04-15 00:13:00,
2013-04-14 16:28:00,28.0,20.1,30.55,ESE,102,3.0,6.0,72,0.00,CLR,,0.00,WeatherDisplay:10.37,2013-04-15 00:28:00,
2013-04-14 16:43:00,29.0,20.4,30.55,East,93,2.0,5.0,70,0.00,CLR,,0.00,WeatherDisplay:10.37,2013-04-15 00:43:00,
2013-04-14 16:58:00,29.9,21.7,30.55,NE,49,2.0,5.0,71,0.00,CLR,,0.00,WeatherDisplay:10.37,2013-04-15 00:58:00,
2013-04-14 17:13:00,30.3,21.3,30.55,ESE,115,0.0,6.0,69,0.00,CLR,,0.00,WeatherDisplay:10.37,2013-04-15 01:13:00,
2013-04-14 17:28:00,29.8,20.8,30.54,South,169,0.0,9.0,69,0.00,CLR,,0.00,WeatherDisplay:10.37,2013-04-15 01:28:00,
2013-04-14 17:43:00,29.9,21.0,30.54,ESE,116,1.0,8.0,69,0.00,CLR,,0.00,WeatherDisplay:10.37,2013-04-15 01:43:00,
2013-04-14 17:58:00,29.6,20.6,30.53,NNE,27,1.0,7.0,69,0.00,CLR,,0.00,WeatherDisplay:10.37,2013-04-15 01:58:00,
2013-04-14 18:13:00,30.2,21.3,30.52,NE,51,1.0,3.0,69,0.00,CLR,,0.00,WeatherDisplay:10.37,2013-04-15 02:13:00,
2013-04-14 18:28:00,30.0,20.7,30.53,NE,43,0.0,5.0,68,0.00,CLR,,0.00,WeatherDisplay:10.37,2013-04-15 02:28:00,
2013-04-14 18:43:00,29.4,20.1,30.53,SE,143,0.0,5.0,68,0.00,CLR,,0.00,WeatherDisplay:10.37,2013-04-15 02:43:00,
2013-04-14 18:59:00,28.9,19.7,30.53,NE,45,0.0,2.0,68,0.00,CLR,,0.00,WeatherDisplay:10.37,2013-04-15 02:59:00,
2013-04-14 19:13:00,29.0,20.1,30.53,NE,45,1.0,4.0,69,0.00,CLR,,0.00,WeatherDisplay:10.37,2013-04-15 03:13:00,
2013-04-14 19:28:00,29.0,20.1,30.53,NE,53,3.0,5.0,69,0.00,CLR,,0.00,WeatherDisplay:10.37,2013-04-15 03:28:00,
2013-04-14 19:43:00,28.8,19.6,30.53,NE,47,5.0,7.0,68,0.00,CLR,,0.00,WeatherDisplay:10.37,2013-04-15 03:43:00,
2013-04-14 19:58:00,28.2,19.0,30.53,NE,42,2.0,7.0,68,0.00,CLR,,0.00,WeatherDisplay:10.37,2013-04-15 03:58:00,
2013-04-14 20:13:00,27.8,18.9,30.54,NNE,31,2.0,5.0,69,0.00,CLR,,0.00,WeatherDisplay:10.37,2013-04-15 04:13:00,
2013-04-14 20:28:00,27.4,18.5,30.54,NE,43,2.0,5.0,69,0.00,CLR,,0.00,WeatherDisplay:10.37,2013-04-15 04:28:00,
2013-04-14 20:43:00,27.0,18.2,30.54,NNE,15,0.0,3.0,69,0.00,CLR,,0.00,WeatherDisplay:10.37,2013-04-15 04:43:00,
2013-04-14 20:58:00,26.7,18.2,30.54,NNE,18,0.0,2.0,70,0.00,CLR,,0.00,WeatherDisplay:10.37,2013-04-15 04:58:00,
2013-04-14 21:13:00,26.5,18.4,30.54,NNE,31,1.0,3.0,71,0.00,CLR,,0.00,WeatherDisplay:10.37,2013-04-15 05:13:00,
2013-04-14 21:28:00,26.3,18.8,30.55,NNE,32,2.0,5.0,73,0.00,CLR,,0.00,WeatherDisplay:10.37,2013-04-15 05:28:00,
2013-04-14 21:43:00,25.9,18.5,30.55,NE,53,3.0,7.0,73,0.00,CLR,,0.00,WeatherDisplay:10.37,2013-04-15 05:43:00,
2013-04-14 21:58:00,25.4,18.3,30.55,ENE,59,2.0,9.0,74,0.00,CLR,,0.00,WeatherDisplay:10.37,2013-04-15 05:58:00,
2013-04-14 22:13:00,25.0,18.5,30.55,ENE,59,3.0,7.0,76,0.00,CLR,,0.00,WeatherDisplay:10.37,2013-04-15 06:13:00,
2013-04-14 22:28:00,24.6,18.4,30.55,NE,55,5.0,8.0,77,0.00,CLR,,0.00,WeatherDisplay:10.37,2013-04-15 06:28:00,
2013-04-14 22:43:00,24.3,18.1,30.56,ENE,58,5.0,9.0,77,0.00,CLR,,0.00,WeatherDisplay:10.37,2013-04-15 06:43:00,
2013-04-14 22:58:00,23.9,18.0,30.55,ENE,60,5.0,9.0,78,0.00,CLR,,0.00,WeatherDisplay:10.37,2013-04-15 06:58:00,
2013-04-14 23:43:00,22.8,17.3,30.56,ENE,65,5.0,8.0,79,0.00,CLR,,0.00,WeatherDisplay:10.37,2013-04-15 07:43:00,
2013-04-14 23:58:00,22.0,16.8,30.56,ENE,67,5.0,8.0,80,0.00,CLR,,0.00,WeatherDisplay:10.37,2013-04-15 07:58:00,